createdAt,value
2022-11-22T00:01:05.712Z,2.10
2022-11-22T00:03:37.678Z,2.14
2022-11-22T00:06:09.648Z,2.20
2022-11-22T00:08:41.680Z,2.19
2022-11-22T00:11:13.624Z,2.17
2022-11-22T00:13:45.555Z,2.19
2022-11-22T00:16:17.579Z,2.20
2022-11-22T00:18:49.507Z,2.18
2022-11-22T00:21:21.477Z,2.15
2022-11-22T00:23:59.475Z,2.21
2022-11-22T00:26:31.448Z,2.22
2022-11-22T00:29:03.528Z,2.26
2022-11-22T00:31:35.609Z,2.29
2022-11-22T00:34:07.656Z,2.32
2022-11-22T00:36:39.607Z,2.27
2022-11-22T00:39:11.524Z,2.36
2022-11-22T00:41:43.481Z,2.39
2022-11-22T00:44:15.421Z,2.36
2022-11-22T00:46:47.405Z,2.38
2022-11-22T00:49:19.325Z,2.45
2022-11-22T00:51:51.385Z,2.37
2022-11-22T00:54:23.392Z,2.31
2022-11-22T00:56:55.359Z,2.31
2022-11-22T00:59:27.577Z,2.27
2022-11-22T01:01:59.689Z,2.29
2022-11-22T01:04:31.716Z,2.29
2022-11-22T01:07:03.936Z,2.23
2022-11-22T01:09:36.094Z,2.31
2022-11-22T01:12:08.259Z,2.27
2022-11-22T01:14:40.201Z,2.34
2022-11-22T01:17:12.194Z,2.37
2022-11-22T01:19:44.160Z,2.36
2022-11-22T01:22:16.355Z,2.34
2022-11-22T01:24:48.404Z,2.41
2022-11-22T01:27:20.433Z,2.30
2022-11-22T01:29:52.535Z,2.27
2022-11-22T01:32:24.614Z,2.27
2022-11-22T01:34:56.664Z,2.17
2022-11-22T01:37:28.649Z,2.16
2022-11-22T01:40:00.630Z,2.23
2022-11-22T01:42:54.698Z,2.31
2022-11-22T01:45:41.758Z,2.36
2022-11-22T01:48:13.636Z,2.39
2022-11-22T01:50:50.207Z,2.41
2022-11-22T01:53:34.424Z,2.22
2022-11-22T01:56:11.520Z,2.26
2022-11-22T01:58:48.442Z,2.31
2022-11-22T02:01:20.848Z,2.26
2022-11-22T02:03:56.109Z,2.22
2022-11-22T02:06:43.613Z,2.22
2022-11-22T02:09:17.081Z,2.28
2022-11-22T02:11:52.592Z,2.30
2022-11-22T02:14:27.361Z,2.34
2022-11-22T02:16:59.457Z,2.34
2022-11-22T02:19:48.211Z,2.35
2022-11-22T02:23:10.505Z,2.49
2022-11-22T02:25:42.458Z,2.47
2022-11-22T02:28:14.519Z,2.49
2022-11-22T02:30:46.605Z,2.43
2022-11-22T02:33:18.876Z,2.48
2022-11-22T02:35:50.928Z,2.38
2022-11-22T02:38:31.756Z,2.41
2022-11-22T02:41:09.429Z,2.47
2022-11-22T02:43:47.527Z,2.47
2022-11-22T02:46:21.895Z,2.49
2022-11-22T02:48:53.928Z,2.47
2022-11-22T02:51:26.625Z,2.47
2022-11-22T02:53:58.562Z,2.49
2022-11-22T02:56:30.551Z,2.51
2022-11-22T02:59:02.532Z,2.47
2022-11-22T03:01:35.353Z,2.42
2022-11-22T03:04:07.431Z,2.35
2022-11-22T03:06:39.387Z,2.39
2022-11-22T03:09:11.329Z,2.38
2022-11-22T03:11:43.657Z,2.37
2022-11-22T03:14:16.128Z,2.36
2022-11-22T03:16:48.484Z,2.37
2022-11-22T03:19:20.636Z,2.39
2022-11-22T03:21:52.695Z,2.45
2022-11-22T03:24:24.635Z,2.49
2022-11-22T03:26:56.737Z,2.55
2022-11-22T03:29:28.996Z,2.42
2022-11-22T03:32:01.171Z,2.45
2022-11-22T03:34:33.103Z,2.45
2022-11-22T03:37:05.086Z,2.46
2022-11-22T03:39:37.020Z,2.50
2022-11-22T03:42:08.979Z,2.44
2022-11-22T03:44:41.026Z,2.61
2022-11-22T03:47:13.097Z,2.53
2022-11-22T03:49:45.213Z,2.51
2022-11-22T03:52:17.262Z,2.49
2022-11-22T03:54:49.261Z,2.48
2022-11-22T03:57:21.254Z,2.55
2022-11-22T03:59:53.224Z,2.61
2022-11-22T04:02:25.185Z,2.55
2022-11-22T04:04:57.142Z,2.55
2022-11-22T04:07:29.170Z,2.52
2022-11-22T04:10:01.196Z,2.55
2022-11-22T04:12:33.481Z,2.54
2022-11-22T04:15:08.947Z,2.58
2022-11-22T04:17:48.173Z,2.59
2022-11-22T04:20:48.275Z,2.60
2022-11-22T04:23:23.845Z,2.67
2022-11-22T04:25:56.275Z,2.71
2022-11-22T04:28:47.083Z,2.72
2022-11-22T04:31:38.641Z,2.70
2022-11-22T04:34:10.608Z,2.72
2022-11-22T04:36:42.556Z,2.75
2022-11-22T04:39:14.484Z,2.84
2022-11-22T04:41:46.530Z,2.90
2022-11-22T04:44:37.193Z,2.82
2022-11-22T04:47:35.949Z,2.84
2022-11-22T04:50:29.080Z,2.78
2022-11-22T04:53:01.141Z,2.80
2022-11-22T04:55:33.091Z,2.81
2022-11-22T04:58:05.183Z,2.70
2022-11-22T05:00:37.502Z,2.64
2022-11-22T05:03:09.793Z,2.61
2022-11-22T05:05:44.567Z,2.61
2022-11-22T05:08:16.567Z,2.57
2022-11-22T05:10:58.349Z,2.59
2022-11-22T05:13:36.184Z,2.59
2022-11-22T05:16:12.157Z,2.69
2022-11-22T05:18:44.194Z,2.65
2022-11-22T05:21:16.172Z,2.68
2022-11-22T05:23:56.864Z,2.72
2022-11-22T05:26:35.460Z,2.72
2022-11-22T05:29:10.472Z,2.69
2022-11-22T05:31:48.259Z,2.66
2022-11-22T05:34:23.064Z,2.68
2022-11-22T05:36:55.151Z,2.67
2022-11-22T05:39:27.321Z,2.73
2022-11-22T05:41:59.517Z,2.79
2022-11-22T05:44:31.797Z,2.83
2022-11-22T05:47:03.951Z,2.75
2022-11-22T05:49:36.212Z,2.76
2022-11-22T05:52:08.887Z,2.80
2022-11-22T05:54:40.841Z,2.62
2022-11-22T05:57:12.835Z,2.63
2022-11-22T05:59:44.755Z,2.61
2022-11-22T06:02:16.814Z,2.67
2022-11-22T06:04:48.817Z,2.68
2022-11-22T06:07:20.913Z,2.69
2022-11-22T06:09:52.928Z,2.71
2022-11-22T06:12:24.860Z,2.63
2022-11-22T06:14:56.873Z,2.70
2022-11-22T06:17:28.820Z,2.71
2022-11-22T06:20:05.880Z,2.77
2022-11-22T06:22:38.582Z,2.78
2022-11-22T06:25:10.710Z,2.81
2022-11-22T06:27:42.650Z,2.85
2022-11-22T06:30:15.241Z,2.78
2022-11-22T06:32:47.223Z,2.83
2022-11-22T06:35:19.181Z,2.76
2022-11-22T06:37:54.897Z,2.73
2022-11-22T06:40:29.615Z,2.80
2022-11-22T06:43:01.594Z,2.88
2022-11-22T06:45:33.523Z,2.86
2022-11-22T06:48:06.153Z,2.92
2022-11-22T06:50:38.096Z,2.83
2022-11-22T06:53:21.328Z,2.81
2022-11-22T06:56:18.621Z,2.85
2022-11-22T06:58:52.292Z,2.87
2022-11-22T07:01:29.525Z,2.92
2022-11-22T07:04:02.169Z,3.02
2022-11-22T07:06:38.658Z,2.97
2022-11-22T07:09:11.987Z,3.01
2022-11-22T07:11:44.034Z,3.06
2022-11-22T07:14:16.010Z,2.98
2022-11-22T07:16:47.952Z,2.98
2022-11-22T07:19:19.894Z,3.11
2022-11-22T07:21:51.805Z,3.03
2022-11-22T07:24:23.757Z,3.00
2022-11-22T07:26:55.778Z,2.98
2022-11-22T07:29:27.941Z,3.02
2022-11-22T07:32:00.114Z,3.05
2022-11-22T07:34:32.093Z,3.02
2022-11-22T07:37:08.915Z,3.07
2022-11-22T07:39:41.190Z,3.13
2022-11-22T07:42:13.256Z,3.10
2022-11-22T07:44:45.213Z,3.18
2022-11-22T07:47:22.590Z,3.30
2022-11-22T07:49:54.984Z,3.29
2022-11-22T07:52:26.939Z,3.31
2022-11-22T07:54:58.935Z,3.41
2022-11-22T07:57:32.446Z,3.48
2022-11-22T08:00:06.268Z,3.49
2022-11-22T08:02:38.872Z,3.49
2022-11-22T08:05:11.095Z,3.45
2022-11-22T08:07:51.732Z,3.46
2022-11-22T08:10:24.381Z,3.54
2022-11-22T08:13:00.277Z,3.59
2022-11-22T08:15:32.780Z,3.62
2022-11-22T08:18:04.804Z,3.58
2022-11-22T08:20:36.782Z,3.63
2022-11-22T08:23:08.713Z,3.62
2022-11-22T08:25:40.691Z,3.60
2022-11-22T08:28:12.660Z,3.52
2022-11-22T08:30:44.597Z,3.49
2022-11-22T08:33:16.578Z,3.66
2022-11-22T08:35:50.797Z,3.63
2022-11-22T08:38:22.968Z,3.57
2022-11-22T08:40:55.272Z,3.61
2022-11-22T08:43:27.194Z,3.72
2022-11-22T08:46:02.089Z,3.75
2022-11-22T08:48:37.131Z,3.78
2022-11-22T08:51:14.985Z,3.82
2022-11-22T08:53:47.222Z,3.88
2022-11-22T08:56:19.156Z,3.97
2022-11-22T08:58:51.181Z,3.96
2022-11-22T09:01:23.691Z,3.97
2022-11-22T09:03:55.705Z,4.03
2022-11-22T09:09:36.781Z,3.98
2022-11-22T09:12:11.612Z,3.83
2022-11-22T09:14:43.665Z,3.90
2022-11-22T09:17:18.033Z,3.98
2022-11-22T09:19:50.376Z,3.97
2022-11-22T09:22:28.094Z,3.96
2022-11-22T09:25:00.756Z,4.03
2022-11-22T09:27:36.115Z,4.10
2022-11-22T09:30:08.791Z,4.21
2022-11-22T09:32:43.765Z,4.11
2022-11-22T09:35:17.364Z,4.26
2022-11-22T09:37:49.324Z,4.29
2022-11-22T09:40:21.421Z,4.39
2022-11-22T09:43:39.897Z,4.46
2022-11-22T09:46:25.973Z,4.46
2022-11-22T09:49:38.445Z,4.55
2022-11-22T09:52:19.624Z,4.63
2022-11-22T09:55:05.026Z,4.66
2022-11-22T09:58:10.209Z,4.69
2022-11-22T10:00:47.756Z,4.71
2022-11-22T10:04:06.066Z,4.77
2022-11-22T10:06:43.036Z,4.93
2022-11-22T10:09:33.430Z,5.05
2022-11-22T10:12:21.076Z,5.24
2022-11-22T10:15:24.642Z,5.39
2022-11-22T10:18:24.588Z,5.46
2022-11-22T10:20:56.569Z,5.54
2022-11-22T10:23:28.988Z,5.59
2022-11-22T10:26:19.547Z,5.64
2022-11-22T10:29:42.557Z,5.79
2022-11-22T10:32:35.267Z,6.00
2022-11-22T10:35:59.494Z,6.11
2022-11-22T10:38:58.438Z,6.37
2022-11-22T10:41:39.794Z,6.55
2022-11-22T10:44:52.209Z,6.61
2022-11-22T10:47:44.918Z,6.64
2022-11-22T10:50:32.289Z,6.57
2022-11-22T10:53:29.104Z,6.41
2022-11-22T10:56:35.336Z,6.21
2022-11-22T10:59:37.904Z,6.15
2022-11-22T11:03:06.508Z,5.99
2022-11-22T11:12:17.502Z,6.47
2022-11-22T11:14:56.226Z,6.46
2022-11-22T11:17:37.440Z,6.43
2022-11-22T11:20:33.541Z,6.48
2022-11-22T11:23:20.980Z,6.64
2022-11-22T11:25:53.242Z,6.68
2022-11-22T11:28:30.140Z,6.60
2022-11-22T11:31:11.731Z,6.49
2022-11-22T11:33:43.769Z,6.56
2022-11-22T11:36:23.380Z,6.74
2022-11-22T11:38:58.236Z,6.84
2022-11-22T11:41:34.465Z,6.77
2022-11-22T11:44:29.361Z,6.79
2022-11-22T11:47:02.952Z,6.90
2022-11-22T11:49:40.616Z,6.97
2022-11-22T11:52:23.952Z,6.96
2022-11-22T11:54:59.605Z,6.89
2022-11-22T11:57:35.584Z,6.86
2022-11-22T12:00:22.420Z,6.95
2022-11-22T12:03:01.024Z,7.06
2022-11-22T12:05:34.645Z,7.06
2022-11-22T12:08:31.675Z,7.01
2022-11-22T12:11:10.215Z,7.09
2022-11-22T12:14:19.041Z,7.21
2022-11-22T12:16:54.714Z,7.26
2022-11-22T12:19:58.169Z,7.23
2022-11-22T12:23:21.806Z,7.26
2022-11-22T12:25:57.311Z,7.23
2022-11-22T12:28:29.727Z,7.25
2022-11-22T12:31:13.599Z,7.26
2022-11-22T12:33:54.846Z,7.26
2022-11-22T12:36:45.111Z,7.20
2022-11-22T12:39:26.324Z,7.21
2022-11-22T12:42:12.120Z,7.19
2022-11-22T12:44:52.265Z,7.15
2022-11-22T12:47:31.669Z,7.09
2022-11-22T12:50:18.826Z,7.11
2022-11-22T12:53:31.294Z,7.19
2022-11-22T12:56:33.590Z,7.10
2022-11-22T12:59:24.407Z,7.06
2022-11-22T13:02:10.998Z,7.04
2022-11-22T13:05:23.550Z,7.04
2022-11-22T13:08:29.063Z,7.06
2022-11-22T13:11:19.274Z,7.01
2022-11-22T13:13:58.239Z,7.09
2022-11-22T13:16:30.345Z,7.14
2022-11-22T13:19:05.512Z,7.15
2022-11-22T13:22:02.485Z,7.10
2022-11-22T13:25:02.085Z,7.10
2022-11-22T13:27:46.524Z,7.05
2022-11-22T13:30:28.046Z,7.08
2022-11-22T13:33:01.322Z,6.94
2022-11-22T13:35:38.166Z,7.04
2022-11-22T13:38:18.216Z,7.00
2022-11-22T13:40:51.373Z,6.98
2022-11-22T13:43:50.629Z,6.91
2022-11-22T13:47:23.883Z,6.93
2022-11-22T13:49:55.878Z,6.95
2022-11-22T13:52:49.793Z,7.01
2022-11-22T13:55:40.455Z,6.87
2022-11-22T13:58:26.312Z,6.80
2022-11-22T14:01:00.008Z,6.77
2022-11-22T14:03:36.349Z,6.74
2022-11-22T14:06:30.720Z,6.78
2022-11-22T14:09:44.290Z,6.73
2022-11-22T14:12:53.423Z,6.71
2022-11-22T14:15:57.610Z,6.73
2022-11-22T14:18:52.880Z,6.74
2022-11-22T14:22:01.805Z,6.67
2022-11-22T14:25:24.331Z,6.65
2022-11-22T14:28:23.712Z,6.63
2022-11-22T14:30:57.838Z,6.50
2022-11-22T14:33:29.948Z,6.49
2022-11-22T14:36:08.058Z,6.47
2022-11-22T14:38:44.446Z,6.44
2022-11-22T14:41:28.395Z,6.41
2022-11-22T14:44:11.524Z,6.38
2022-11-22T14:47:07.688Z,6.35
2022-11-22T14:49:48.583Z,6.36
2022-11-22T14:52:24.709Z,6.36
2022-11-22T14:55:06.093Z,6.35
2022-11-22T14:57:38.724Z,6.34
2022-11-22T15:00:24.391Z,6.34
2022-11-22T15:03:42.877Z,6.38
2022-11-22T15:09:19.186Z,6.33
2022-11-22T15:10:25.551Z,6.35
2022-11-22T15:13:23.312Z,6.43
2022-11-22T15:57:54.420Z,6.45
2022-11-22T16:00:29.352Z,6.57
2022-11-22T16:03:03.002Z,6.58
2022-11-22T16:06:06.677Z,6.51
2022-11-22T16:08:32.824Z,6.47
2022-11-22T16:11:05.937Z,6.42
2022-11-22T16:13:38.515Z,6.42
2022-11-22T16:16:13.484Z,6.39
2022-11-22T16:18:48.358Z,6.32
2022-11-22T16:21:29.069Z,6.34
2022-11-22T16:24:19.692Z,6.39
2022-11-22T16:27:00.609Z,6.41
2022-11-22T16:29:37.040Z,6.32
2022-11-22T16:32:16.493Z,6.33
2022-11-22T16:34:51.602Z,6.30
2022-11-22T16:37:37.857Z,6.28
2022-11-22T16:40:16.308Z,6.24
2022-11-22T16:42:48.326Z,6.25
2022-11-22T16:45:24.066Z,6.23
2022-11-22T16:48:16.527Z,6.19
2022-11-22T16:51:06.149Z,6.22
2022-11-22T16:53:45.696Z,6.20
2022-11-22T16:56:28.370Z,6.19
2022-11-22T16:59:00.554Z,6.19
2022-11-22T17:01:34.384Z,6.07
2022-11-22T17:04:06.449Z,6.11
2022-11-22T17:06:38.493Z,6.19
2022-11-22T17:09:10.557Z,6.17
2022-11-22T17:11:44.403Z,6.20
2022-11-22T17:14:18.558Z,6.16
2022-11-22T17:16:50.588Z,6.16
2022-11-22T17:19:52.820Z,6.19
2022-11-22T17:22:17.034Z,6.10
2022-11-22T17:24:49.027Z,6.10
2022-11-22T17:27:21.060Z,6.06
2022-11-22T17:29:53.072Z,6.08
2022-11-22T17:32:25.017Z,6.10
2022-11-22T17:34:57.016Z,5.99
2022-11-22T17:37:29.820Z,5.94
2022-11-22T17:40:02.419Z,5.91
2022-11-22T17:42:40.780Z,5.82
2022-11-22T17:45:13.476Z,5.79
2022-11-22T17:47:45.620Z,5.74
2022-11-22T17:50:17.698Z,5.73
2022-11-22T17:52:52.072Z,5.66
2022-11-22T17:55:26.364Z,5.63
2022-11-22T17:58:01.130Z,5.51
2022-11-22T18:00:33.126Z,5.55
2022-11-22T18:03:08.241Z,5.55
2022-11-22T18:05:40.487Z,5.53
2022-11-22T18:08:12.435Z,5.54
2022-11-22T18:10:44.428Z,5.60
2022-11-22T18:13:23.600Z,5.63
2022-11-22T18:16:03.444Z,5.63
2022-11-22T18:18:56.263Z,5.65
2022-11-22T18:21:31.104Z,5.66
2022-11-22T18:24:03.329Z,5.63
2022-11-22T18:26:40.387Z,5.58
2022-11-22T18:32:06.024Z,5.61
2022-11-22T18:34:37.981Z,5.55
2022-11-22T18:37:10.157Z,5.56
2022-11-22T18:39:42.121Z,5.56
2022-11-22T18:42:16.258Z,5.50
2022-11-22T18:44:48.213Z,5.51
2022-11-22T18:47:20.241Z,5.54
2022-11-22T18:49:52.293Z,5.49
2022-11-22T18:52:24.745Z,5.49
2022-11-22T18:54:56.664Z,5.43
2022-11-22T18:57:29.123Z,5.39
2022-11-22T19:00:01.133Z,5.35
2022-11-22T19:02:33.852Z,5.33
2022-11-22T19:05:06.143Z,5.33
2022-11-22T19:07:39.480Z,5.29
2022-11-22T19:10:11.550Z,5.28
2022-11-22T19:12:43.749Z,5.34
2022-11-22T19:15:16.723Z,5.27
2022-11-22T19:17:48.705Z,5.16
2022-11-22T19:20:47.268Z,5.16
2022-11-22T19:23:12.926Z,5.19
2022-11-22T19:25:44.903Z,5.19
2022-11-22T19:28:16.885Z,5.18
2022-11-22T19:30:48.913Z,5.16
2022-11-22T19:33:20.993Z,5.20
2022-11-22T19:36:01.984Z,5.16
2022-11-22T19:38:34.055Z,5.04
2022-11-22T19:41:10.947Z,5.05
2022-11-22T19:43:43.972Z,5.06
2022-11-22T19:46:16.395Z,5.10
2022-11-22T19:48:56.426Z,5.17
2022-11-22T19:51:30.940Z,5.20
2022-11-22T19:54:03.941Z,5.16
2022-11-22T19:56:38.413Z,5.21
2022-11-22T19:59:15.703Z,5.25
2022-11-22T20:01:47.765Z,5.32
2022-11-22T20:04:19.912Z,5.33
2022-11-22T20:06:51.935Z,5.39
2022-11-22T20:09:24.157Z,5.41
2022-11-22T20:11:56.234Z,5.36
2022-11-22T20:14:28.469Z,5.36
2022-11-22T20:17:00.703Z,5.38
2022-11-22T20:19:34.466Z,5.40
2022-11-22T20:22:06.782Z,5.45
2022-11-22T20:24:38.890Z,5.36
2022-11-22T20:27:11.223Z,5.43
2022-11-22T20:29:43.592Z,5.47
2022-11-22T20:32:15.606Z,5.56
2022-11-22T20:34:47.634Z,5.59
2022-11-22T20:37:19.633Z,5.62
2022-11-22T20:39:51.602Z,5.64
2022-11-22T20:42:34.193Z,5.72
2022-11-22T20:45:08.730Z,5.75
2022-11-22T20:47:40.869Z,5.76
2022-11-22T20:50:13.040Z,5.73
2022-11-22T20:52:44.974Z,5.78
2022-11-22T20:55:16.946Z,5.81
2022-11-22T20:57:48.925Z,5.76
2022-11-22T21:00:21.010Z,5.83
2022-11-22T21:02:52.954Z,5.80
2022-11-22T21:05:25.008Z,5.83
2022-11-22T21:08:00.019Z,5.85
2022-11-22T21:10:34.488Z,5.91
2022-11-22T21:13:06.588Z,5.89
2022-11-22T21:15:38.741Z,5.95
2022-11-22T21:18:27.132Z,5.82
2022-11-22T21:21:11.809Z,5.88
2022-11-22T21:23:44.010Z,5.93
2022-11-22T21:26:16.004Z,5.96
2022-11-22T21:28:48.106Z,6.03
2022-11-22T21:31:21.852Z,6.05
2022-11-22T21:33:54.024Z,5.91
2022-11-22T21:36:26.407Z,6.01
2022-11-22T21:38:58.509Z,5.95
2022-11-22T21:41:45.865Z,5.99
2022-11-22T21:44:17.942Z,6.08
2022-11-22T21:46:51.071Z,6.11
2022-11-22T21:49:23.012Z,6.02
2022-11-22T21:51:55.742Z,6.03
2022-11-22T21:54:27.760Z,6.10
2022-11-22T21:57:02.969Z,6.12
2022-11-22T21:59:35.824Z,6.12
2022-11-22T22:02:08.516Z,6.13
2022-11-22T22:04:40.512Z,6.13
2022-11-22T22:07:29.542Z,6.16
2022-11-22T22:10:05.737Z,6.14
2022-11-22T22:12:39.618Z,6.15
2022-11-22T22:15:13.250Z,6.15
2022-11-22T22:17:45.556Z,6.11
2022-11-22T22:20:17.623Z,6.09
2022-11-22T22:22:50.161Z,6.10
2022-11-22T22:25:22.207Z,6.10
2022-11-22T22:27:57.207Z,6.11
2022-11-22T22:30:29.276Z,6.09
2022-11-22T22:33:01.222Z,6.10
2022-11-22T22:35:33.203Z,6.18
2022-11-22T22:38:05.161Z,6.15
2022-11-22T22:40:37.108Z,6.16
2022-11-22T22:43:09.154Z,6.15
2022-11-22T22:45:41.129Z,6.16
2022-11-22T22:48:13.204Z,6.27
2022-11-22T22:50:45.808Z,6.24
2022-11-22T22:53:17.760Z,6.18
2022-11-22T22:55:55.985Z,6.24
2022-11-22T22:58:28.397Z,6.29
2022-11-22T23:01:21.958Z,6.40
2022-11-22T23:04:06.083Z,6.44
2022-11-22T23:06:39.854Z,6.40
2022-11-22T23:09:12.500Z,6.43
2022-11-22T23:12:02.840Z,6.49
2022-11-22T23:14:34.810Z,6.43
2022-11-22T23:17:08.755Z,6.45
2022-11-22T23:19:40.702Z,6.46
2022-11-22T23:22:12.616Z,6.51
2022-11-22T23:24:44.801Z,6.53
2022-11-22T23:27:16.766Z,6.46
2022-11-22T23:29:48.716Z,6.52
2022-11-22T23:32:20.802Z,6.52
2022-11-22T23:34:52.767Z,6.52
2022-11-22T23:37:24.792Z,6.58
2022-11-22T23:39:56.747Z,6.66
2022-11-22T23:42:29.260Z,6.73
2022-11-22T23:45:01.226Z,6.77
2022-11-22T23:47:33.151Z,6.79
2022-11-22T23:50:05.661Z,6.79
2022-11-22T23:52:37.595Z,6.81
2022-11-22T23:55:09.823Z,6.80
2022-11-22T23:57:42.063Z,6.83
